Lakewood, Colorado
Current Conditions -  °F | °C
As of 8:51 AM on Monday 26 Jan 2015 (Local Time) from KBJC Reporting Station
Few Clouds Few Clouds  
Wind Chill: 54°   Ceiling: Unl
Heat Index: 54°   Visibility: 50mi
Dew Point: 28°   Wind: 5mph
Humidity: 38%   Direction: 210°SSW
Pressure: 30.27"   Gusts: NA
Location:  39.71°N, 105.08°W
Report Text: KBJC 261551Z 21004KT 50SM FEW150 12/M02 A3027
Loading
Personal Weather Stations






























Interactive Weather Map New forecast layout! Learn more

10-Day Weather Forecast

Advertisements
Track Severe Weather on mobile